createdAt,value
2022-09-14T00:02:47.835Z,35.4
2022-09-14T00:08:09.635Z,35.4
2022-09-14T00:13:31.029Z,35.4
2022-09-14T00:18:53.541Z,35.3
2022-09-14T00:24:14.879Z,35.3
2022-09-14T00:34:43.502Z,35.3
2022-09-14T00:40:21.553Z,35.3
2022-09-14T00:45:58.816Z,35.3
2022-09-14T00:51:36.914Z,35.3
2022-09-14T00:57:14.242Z,35.2
2022-09-14T01:02:51.582Z,35.2
2022-09-14T01:08:13.456Z,35.1
2022-09-14T01:13:51.254Z,35.1
2022-09-14T01:18:56.237Z,35.1
2022-09-14T01:24:03.125Z,35
2022-09-14T01:29:24.918Z,35
2022-09-14T01:39:52.836Z,34.9
2022-09-14T01:50:21.987Z,34.9
2022-09-14T01:55:28.714Z,34.9
2022-09-14T02:00:51.434Z,34.9
2022-09-14T02:06:15.086Z,34.8
2022-09-14T02:11:37.685Z,34.8
2022-09-14T02:22:36.614Z,34.8
2022-09-14T02:27:59.098Z,34.8
2022-09-14T02:38:58.686Z,34.7
2022-09-14T02:44:36.182Z,34.7
2022-09-14T02:50:14.425Z,34.6
2022-09-14T02:55:51.117Z,34.6
2022-09-14T03:01:28.106Z,34.6
2022-09-14T03:07:06.800Z,34.6
2022-09-14T03:12:44.464Z,34.5
2022-09-14T03:18:22.696Z,34.5
2022-09-14T03:24:00.836Z,34.4
2022-09-14T03:34:59.892Z,34.4
2022-09-14T03:40:38.831Z,34.4
2022-09-14T03:46:15.998Z,34.4
2022-09-14T03:51:56.475Z,34.3
2022-09-14T03:57:37.239Z,34.4
2022-09-14T04:03:14.468Z,34.3
2022-09-14T04:08:52.310Z,34.3
2022-09-14T04:14:14.386Z,34.3
2022-09-14T04:19:51.309Z,34.3
2022-09-14T04:25:54.596Z,34.3
2022-09-14T04:31:57.409Z,34.2
2022-09-14T04:37:37.914Z,34.2
2022-09-14T04:43:15.434Z,34.1
2022-09-14T04:48:58.232Z,34.1
2022-09-14T04:54:34.722Z,34.1
2022-09-14T05:00:13.933Z,34.1
2022-09-14T05:05:53.219Z,34.1
2022-09-14T05:11:30.208Z,34.1
2022-09-14T05:17:14.464Z,34.1
2022-09-14T05:22:51.903Z,34.1
2022-09-14T05:28:29.378Z,34
2022-09-14T05:34:07.645Z,34
2022-09-14T05:39:45.356Z,33.9
2022-09-14T05:45:22.899Z,33.9
2022-09-14T05:51:03.147Z,33.9
2022-09-14T05:56:41.352Z,33.9
2022-09-14T06:02:19.103Z,33.9
2022-09-14T06:08:20.715Z,33.9
2022-09-14T06:14:02.789Z,37.1
2022-09-14T06:19:40.801Z,36.1
2022-09-14T06:25:24.976Z,35.6
2022-09-14T06:30:48.224Z,35.4
2022-09-14T06:36:12.492Z,40.8
2022-09-14T06:41:35.754Z,43.2
2022-09-14T06:47:03.454Z,44.2
2022-09-14T06:52:41.276Z,45.1
2022-09-14T06:58:20.432Z,45.1
2022-09-14T07:04:01.821Z,45.6
2022-09-14T07:09:39.408Z,46.4
2022-09-14T07:15:05.248Z,47.3
2022-09-14T07:20:28.232Z,48.1
2022-09-14T07:26:09.111Z,48.8
2022-09-14T07:31:32.354Z,49.6
2022-09-14T07:36:55.104Z,49.8
2022-09-14T07:42:57.889Z,50.5
2022-09-14T07:48:36.137Z,51.5
2022-09-14T07:54:17.456Z,52.3
2022-09-14T08:00:42.937Z,53.1
2022-09-14T08:06:21.190Z,53.8
2022-09-14T08:11:59.260Z,54.5
2022-09-14T08:17:41.180Z,55.3
2022-09-14T08:23:25.006Z,55.9
2022-09-14T08:29:03.474Z,56.4
2022-09-14T08:34:25.951Z,56.9
2022-09-14T08:40:26.714Z,57.5
2022-09-14T08:46:05.552Z,58
2022-09-14T09:02:42.633Z,59.5
2022-09-14T09:08:24.627Z,59.9
2022-09-14T09:14:02.739Z,60.4
2022-09-14T09:19:45.185Z,60.8
2022-09-14T09:25:26.823Z,61.3
2022-09-14T09:36:18.573Z,62.2
2022-09-14T09:41:57.241Z,62.6
2022-09-14T09:47:49.907Z,63
2022-09-14T09:53:27.667Z,63.5
2022-09-14T09:59:05.531Z,63.8
2022-09-14T10:04:44.200Z,64.2
2022-09-14T10:10:23.852Z,64.5
2022-09-14T10:16:07.209Z,64.8
2022-09-14T10:21:50.630Z,65.1
2022-09-14T10:27:34.358Z,65.4
2022-09-14T10:33:14.330Z,65.4
2022-09-14T10:38:52.006Z,65.7
2022-09-14T10:44:31.432Z,65.8
2022-09-14T10:50:09.720Z,65.8
2022-09-14T10:55:47.348Z,66
2022-09-14T11:01:11.672Z,66.1
2022-09-14T11:06:50.390Z,66.3
2022-09-14T11:12:33.134Z,66.4
2022-09-14T11:18:11.811Z,66.6
2022-09-14T11:23:49.736Z,66.8
2022-09-14T11:29:28.370Z,66.8
2022-09-14T11:35:26.270Z,66.8
2022-09-14T11:40:49.277Z,67.1
2022-09-14T11:46:27.466Z,67.1
2022-09-14T11:52:38.177Z,67.3
2022-09-14T11:58:16.247Z,67.2
2022-09-14T12:03:55.051Z,67.1
2022-09-14T12:09:34.125Z,67
2022-09-14T12:15:15.441Z,67
2022-09-14T12:21:16.439Z,66.9
2022-09-14T12:26:54.843Z,66.9
2022-09-14T12:32:36.883Z,66.7
2022-09-14T12:38:18.246Z,66.4
2022-09-14T12:44:00.346Z,66.1
2022-09-14T12:49:38.449Z,65.5
2022-09-14T12:55:15.850Z,65.1
2022-09-14T13:00:56.439Z,64.9
2022-09-14T13:06:20.189Z,64.7
2022-09-14T13:11:58.301Z,64.5
2022-09-14T13:17:36.954Z,64.3
2022-09-14T13:28:06.724Z,63.7
2022-09-14T13:33:29.413Z,63.3
2022-09-14T13:38:54.038Z,62.8
2022-09-14T13:43:45.857Z,62.5
2022-09-14T13:48:52.818Z,62.1
2022-09-14T13:54:23.787Z,61.7
2022-09-14T13:59:30.100Z,61.3
2022-09-14T14:04:42.006Z,60.8
2022-09-14T14:09:49.117Z,60.3
2022-09-14T14:15:20.054Z,59.6
2022-09-14T14:20:43.088Z,59.1
2022-09-14T14:26:36.911Z,58.4
2022-09-14T14:31:59.794Z,57.6
2022-09-14T14:37:22.189Z,57
2022-09-14T14:42:49.858Z,56.4
2022-09-14T14:48:13.545Z,55.8
2022-09-14T14:53:35.342Z,55.1
2022-09-14T14:59:18.421Z,54.4
2022-09-14T15:04:57.196Z,53.8
2022-09-14T15:10:40.196Z,53.2
2022-09-14T15:16:22.204Z,52.2
2022-09-14T15:21:45.233Z,49.6
2022-09-14T15:27:23.007Z,48.2
2022-09-14T15:33:03.860Z,47.3
2022-09-14T15:38:41.498Z,46.6
2022-09-14T15:44:20.149Z,46.1
2022-09-14T15:50:04.155Z,45.8
2022-09-14T15:55:47.794Z,45.5
2022-09-14T16:06:48.064Z,45
2022-09-14T16:12:31.353Z,44.9
2022-09-14T16:18:11.033Z,44.7
2022-09-14T16:29:11.854Z,44.5
2022-09-14T16:34:50.392Z,44.4
2022-09-14T16:40:29.081Z,44.1
2022-09-14T16:46:07.778Z,44
2022-09-14T16:51:46.057Z,43.8
2022-09-14T16:57:25.108Z,42.9
2022-09-14T17:03:03.901Z,42.3
2022-09-14T17:08:43.756Z,41.8
2022-09-14T17:14:21.948Z,41.6
2022-09-14T17:20:00.522Z,41.4
2022-09-14T17:25:38.396Z,41.3
2022-09-14T17:31:16.951Z,41.2
2022-09-14T17:36:59.091Z,41.1
2022-09-14T17:42:36.691Z,40.9
2022-09-14T17:48:20.775Z,40.8
2022-09-14T17:53:58.432Z,40.8
2022-09-14T17:59:41.457Z,40.6
2022-09-14T18:05:05.187Z,40.5
2022-09-14T18:10:43.134Z,40.4
2022-09-14T18:16:21.513Z,40.3
2022-09-14T18:21:42.721Z,40.3
2022-09-14T18:37:52.418Z,40
2022-09-14T18:43:15.844Z,39.9
2022-09-14T18:48:41.519Z,39.9
2022-09-14T18:54:04.895Z,39.8
2022-09-14T18:59:32.816Z,39.6
2022-09-14T19:04:56.415Z,39.4
2022-09-14T19:10:34.863Z,38.9
2022-09-14T19:16:13.595Z,38.1
2022-09-14T19:22:13.871Z,37.2
2022-09-14T19:27:52.399Z,36.1
2022-09-14T19:33:31.312Z,35.1
2022-09-14T19:44:37.095Z,33.8
2022-09-14T19:50:16.332Z,33.4
2022-09-14T19:55:54.863Z,33
2022-09-14T20:01:35.865Z,32.8
2022-09-14T20:07:19.088Z,32.5
2022-09-14T20:12:43.811Z,32.4
2022-09-14T20:17:51.030Z,32.2
2022-09-14T20:23:29.388Z,32.1
2022-09-14T20:29:33.975Z,32
2022-09-14T20:40:19.086Z,31.8
2022-09-14T21:16:01.524Z,31.4
2022-09-14T21:21:44.103Z,31.4
2022-09-14T21:27:05.869Z,31.4
2022-09-14T21:32:44.690Z,31.3
2022-09-14T21:38:06.711Z,31.3
2022-09-14T21:43:43.343Z,31.3
2022-09-14T21:49:21.975Z,31.2
2022-09-14T21:54:59.847Z,31.2
2022-09-14T22:00:35.537Z,31.1
2022-09-14T22:06:15.096Z,31.1
2022-09-14T22:11:56.015Z,31.1
2022-09-14T22:17:01.651Z,31.1
2022-09-14T22:22:25.156Z,31
2022-09-14T22:28:01.614Z,31
2022-09-14T22:33:38.619Z,30.9
2022-09-14T22:39:20.257Z,30.9
2022-09-14T22:44:57.013Z,30.9
2022-09-14T22:55:56.622Z,30.9
2022-09-14T23:01:33.316Z,30.8
2022-09-14T23:06:55.312Z,30.8
2022-09-14T23:12:33.518Z,30.8
2022-09-14T23:18:10.598Z,30.8
2022-09-14T23:23:31.618Z,30.7
2022-09-14T23:34:30.654Z,30.7
2022-09-14T23:40:07.454Z,30.6
2022-09-14T23:45:46.378Z,30.6
2022-09-14T23:56:43.901Z,30.6
